Time;durP1;ratioP1;P1;durP2;ratioP2;P2;SDS_P1;SDS_P2;PMS_P1;PMS_P2;Temp;Humidity;BMP_temperature;BMP_pressure;BME280_temperature;BME280_humidity;BME280_pressure;Samples;Min_cycle;Max_cycle;Signal;HPM_P1;HPM_P2
2022/07/11 08:11:26;;;;;;;11.13;10.23;;;17.30;99.90;;;;;;5090841;28;21065;-70
2022/07/11 08:13:52;;;;;;;8.77;8.23;;;17.00;99.90;;;;;;5090857;28;20168;-70
2022/07/11 08:16:18;;;;;;;7.78;7.15;;;17.10;99.90;;;;;;5090785;28;20675;-73
2022/07/11 08:18:43;;;;;;;6.25;5.85;;;17.10;99.90;;;;;;5090766;28;20570;-74
2022/07/11 08:21:09;;;;;;;5.85;5.55;;;17.10;99.90;;;;;;5090710;28;20499;-72
2022/07/11 08:23:35;;;;;;;6.35;5.90;;;17.10;99.90;;;;;;5090673;28;20174;-73
2022/07/11 08:26:00;;;;;;;6.07;5.60;;;17.00;99.90;;;;;;5090630;28;20168;-72
2022/07/11 08:28:26;;;;;;;6.43;6.07;;;16.90;99.90;;;;;;5090601;28;20661;-74
2022/07/11 08:30:52;;;;;;;7.57;7.18;;;16.80;99.90;;;;;;5090454;28;20244;-72
2022/07/11 08:33:18;;;;;;;7.88;7.47;;;16.70;99.90;;;;;;5089165;28;20537;-73
2022/07/11 08:35:43;;;;;;;7.72;7.13;;;16.70;99.90;;;;;;5090452;28;20221;-71
2022/07/11 08:38:09;;;;;;;7.53;6.93;;;16.80;99.90;;;;;;5090283;28;20247;-73
2022/07/11 08:40:35;;;;;;;7.90;7.40;;;16.80;99.90;;;;;;5091240;28;20171;-81
2022/07/11 08:43:02;;;;;;;7.47;7.07;;;16.90;99.90;;;;;;5092322;28;20564;-81
2022/07/11 08:45:32;;;;;;;9.18;8.35;;;16.90;99.90;;;;;;5095783;28;20172;-81
2022/07/11 08:48:04;;;;;;;7.43;6.80;;;16.90;99.90;;;;;;5088926;28;20286;-71
2022/07/11 08:50:37;;;;;;;6.65;6.35;;;17.00;99.90;;;;;;5089996;28;20192;-73
2022/07/11 08:53:09;;;;;;;10.23;9.32;;;17.00;99.90;;;;;;5090159;28;20317;-75
2022/07/11 08:55:41;;;;;;;7.55;7.05;;;17.10;99.90;;;;;;5090152;28;20525;-73
2022/07/11 08:58:10;;;;;;;7.63;7.13;;;17.10;99.90;;;;;;5088819;28;20179;-75
2022/07/11 09:00:38;;;;;;;8.23;7.72;;;17.10;99.90;;;;;;5090063;28;20205;-76
2022/07/11 09:03:17;;;;;;;7.22;6.72;;;17.20;99.90;;;;;;5089848;28;20168;-75
2022/07/11 09:05:50;;;;;;;7.32;6.93;;;17.30;99.90;;;;;;5089854;28;20167;-73
2022/07/11 09:08:23;;;;;;;8.02;7.60;;;17.30;99.90;;;;;;5089724;28;20281;-76
2022/07/11 09:10:55;;;;;;;7.95;7.35;;;17.30;99.90;;;;;;5089313;28;20216;-77
2022/07/11 09:13:32;;;;;;;8.35;7.68;;;17.30;99.90;;;;;;5089722;28;20577;-76
2022/07/11 09:16:07;;;;;;;7.68;7.28;;;17.50;99.90;;;;;;5088481;28;20241;-73
2022/07/11 09:18:43;;;;;;;8.52;8.10;;;17.70;99.90;;;;;;5089641;28;20195;-74
2022/07/11 09:26:54;;;;;;;6.25;5.97;;;18.20;99.90;;;;;;5076181;28;20646;-76
2022/07/11 09:29:27;;;;;;;7.05;6.55;;;18.30;99.90;;;;;;5075984;28;20203;-76
2022/07/11 09:31:58;;;;;;;7.07;6.38;;;18.50;99.90;;;;;;5077421;28;20164;-77
2022/07/11 09:34:29;;;;;;;6.85;6.40;;;18.70;99.90;;;;;;5075886;28;20164;-78
2022/07/11 09:36:59;;;;;;;7.47;6.13;;;18.70;99.90;;;;;;5074548;28;20168;-77
2022/07/11 09:39:28;;;;;;;6.15;5.75;;;18.50;99.90;;;;;;5076034;28;20227;-75
2022/07/11 09:41:56;;;;;;;6.65;6.32;;;18.50;99.90;;;;;;5075882;28;20172;-76
2022/07/11 09:44:33;;;;;;;5.70;5.40;;;18.50;99.90;;;;;;5075698;28;20255;-75
2022/07/11 09:47:10;;;;;;;6.72;6.32;;;18.50;99.90;;;;;;5074355;28;20201;-76
2022/07/11 09:49:40;;;;;;;6.50;6.20;;;18.50;99.90;;;;;;5074550;28;20192;-76
2022/07/11 09:52:18;;;;;;;7.78;7.28;;;18.40;99.90;;;;;;5075823;28;20164;-75
2022/07/11 09:55:00;;;;;;;7.30;6.75;;;18.40;99.90;;;;;;5075568;28;20763;-73
2022/07/11 09:57:49;;;;;;;9.00;6.45;;;18.40;99.90;;;;;;5075473;28;20614;-73
2022/07/11 10:00:17;;;;;;;6.25;5.85;;;18.40;99.90;;;;;;5075434;28;20230;-76
2022/07/11 10:02:52;;;;;;;6.50;6.10;;;18.30;99.90;;;;;;5075267;28;20192;-76
2022/07/11 10:05:21;;;;;;;7.10;6.63;;;18.10;99.90;;;;;;5074157;28;20270;-76
2022/07/11 10:07:52;;;;;;;7.45;6.95;;;18.00;99.90;;;;;;5075117;28;20631;-81
2022/07/11 10:10:24;;;;;;;8.10;7.47;;;17.80;99.90;;;;;;5074880;28;20280;-71
2022/07/11 10:12:57;;;;;;;6.20;5.90;;;17.70;99.90;;;;;;5075119;28;20164;-73
2022/07/11 10:15:34;;;;;;;7.03;6.53;;;17.70;99.90;;;;;;5075107;28;20171;-76
2022/07/11 10:18:34;;;;;;;7.72;7.18;;;17.70;99.90;;;;;;5074981;28;20160;-75
2022/07/11 10:21:40;;;;;;;7.70;7.20;;;17.70;99.90;;;;;;5072811;28;20229;-76
2022/07/11 10:24:24;;;;;;;8.57;7.97;;;17.60;99.90;;;;;;5067641;28;20176;-75
2022/07/11 10:27:21;;;;;;;9.05;8.30;;;17.60;99.90;;;;;;5072753;28;20186;-76
2022/07/11 10:29:56;;;;;;;9.13;8.52;;;17.50;99.90;;;;;;5058366;28;20253;-75
2022/07/11 10:32:25;;;;;;;13.00;8.75;;;17.40;99.90;;;;;;5072258;28;20164;-75
2022/07/11 10:35:17;;;;;;;10.65;9.50;;;17.40;99.90;;;;;;5071979;28;20588;-75
2022/07/11 10:37:58;;;;;;;11.30;10.40;;;17.40;99.90;;;;;;5072595;28;20176;-76
2022/07/11 10:40:47;;;;;;;10.90;9.95;;;17.60;99.90;;;;;;5055557;28;20664;-72
2022/07/11 10:43:36;;;;;;;10.30;9.27;;;17.80;99.90;;;;;;5072281;28;20184;-72
2022/07/11 10:46:14;;;;;;;9.50;8.80;;;18.00;99.90;;;;;;5072337;28;20214;-73
2022/07/11 10:49:21;;;;;;;10.35;9.55;;;18.10;99.90;;;;;;5072210;28;20179;-73
2022/07/11 10:52:00;;;;;;;9.77;8.95;;;18.10;99.90;;;;;;5072200;28;20183;-73
2022/07/11 10:54:48;;;;;;;10.98;10.00;;;18.10;99.90;;;;;;5073105;28;20616;-84
2022/07/11 10:57:57;;;;;;;10.68;9.88;;;17.90;99.90;;;;;;5073021;28;20180;-80
2022/07/11 11:00:29;;;;;;;12.20;10.93;;;17.70;99.90;;;;;;5037343;28;20180;-81
2022/07/11 11:03:27;;;;;;;12.25;11.10;;;17.60;99.90;;;;;;5072495;28;20168;-78
2022/07/11 11:05:58;;;;;;;12.73;11.68;;;17.50;99.90;;;;;;5073410;28;20709;-75
2022/07/11 11:08:43;;;;;;;13.05;11.93;;;17.60;99.90;;;;;;5073951;28;20279;-78
2022/07/11 11:11:23;;;;;;;12.75;11.73;;;17.80;99.90;;;;;;5073488;28;20215;-78
2022/07/11 11:14:16;;;;;;;13.75;12.55;;;17.90;99.90;;;;;;5073899;28;20217;-77
2022/07/11 11:16:45;;;;;;;13.70;12.50;;;18.10;99.90;;;;;;5073777;28;20256;-79
2022/07/11 11:19:49;;;;;;;14.15;12.90;;;18.30;99.90;;;;;;5073807;28;20297;-73
2022/07/11 11:22:22;;;;;;;13.57;12.43;;;18.60;99.90;;;;;;5073288;28;20163;-73
2022/07/11 11:24:52;;;;;;;13.65;12.45;;;18.60;99.90;;;;;;5073353;28;20237;-72
2022/07/11 11:27:22;;;;;;;13.43;12.27;;;18.80;99.90;;;;;;5073569;28;20221;-73
2022/07/11 11:29:50;;;;;;;12.02;10.93;;;19.00;99.90;;;;;;5073574;28;20196;-73
2022/07/11 11:32:16;;;;;;;11.02;10.13;;;19.10;99.90;;;;;;5073658;28;20632;-72
2022/07/11 11:34:42;;;;;;;11.00;10.10;;;19.30;99.90;;;;;;5073991;28;20163;-83
2022/07/11 11:37:09;;;;;;;11.90;10.75;;;19.40;99.90;;;;;;5074434;28;20175;-83
2022/07/11 11:39:41;;;;;;;11.48;10.48;;;19.40;99.90;;;;;;5074151;28;20191;-83
2022/07/11 11:42:07;;;;;;;12.57;11.43;;;19.30;99.90;;;;;;5073872;28;20148;-83
2022/07/11 11:44:34;;;;;;;12.50;11.25;;;19.30;99.90;;;;;;5073579;28;20220;-82
2022/07/11 11:46:59;;;;;;;12.18;11.05;;;19.10;99.90;;;;;;5075145;28;20513;-83
2022/07/11 11:49:25;;;;;;;14.68;12.45;;;19.00;99.90;;;;;;5072865;28;20334;-73
2022/07/11 11:51:55;;;;;;;12.82;11.48;;;18.90;99.90;;;;;;5073306;28;20625;-74
2022/07/11 11:54:23;;;;;;;13.80;12.00;;;18.70;99.90;;;;;;5072096;28;20175;-74
2022/07/11 11:56:49;;;;;;;13.85;12.60;;;18.60;99.90;;;;;;5074042;28;20195;-79
2022/07/11 11:59:15;;;;;;;14.45;12.93;;;18.50;99.90;;;;;;5073519;28;20196;-82
2022/07/11 12:01:43;;;;;;;13.40;12.18;;;18.60;99.90;;;;;;5073702;28;20621;-72
2022/07/11 12:04:16;;;;;;;13.13;11.82;;;18.70;99.90;;;;;;5073115;28;20275;-72
2022/07/11 12:06:47;;;;;;;13.35;12.10;;;18.80;99.90;;;;;;5073252;28;20722;-72
2022/07/11 12:09:18;;;;;;;10.45;9.55;;;19.10;99.90;;;;;;5072920;28;20208;-72
2022/07/11 12:14:33;;;;;;;11.27;10.48;;;19.20;99.90;;;;;;5073096;28;20254;-72
2022/07/11 12:16:59;;;;;;;13.05;11.82;;;19.30;99.90;;;;;;5071953;28;20617;-71
2022/07/11 12:19:26;;;;;;;14.10;12.60;;;19.10;99.90;;;;;;5073218;28;20250;-78
2022/07/11 12:21:54;;;;;;;12.70;11.50;;;19.20;99.90;;;;;;5071838;28;20657;-77
2022/07/11 12:24:26;;;;;;;17.02;12.30;;;19.30;99.90;;;;;;5071786;28;20609;-80
2022/07/11 12:26:52;;;;;;;11.57;10.68;;;19.50;99.90;;;;;;5073046;28;20160;-78
2022/07/11 12:29:20;;;;;;;13.88;10.75;;;19.60;99.90;;;;;;5072956;28;20250;-78
2022/07/11 12:31:50;;;;;;;12.15;11.05;;;19.80;99.90;;;;;;5073009;28;20159;-71
2022/07/11 12:34:17;;;;;;;11.70;10.70;;;20.00;99.90;;;;;;5071672;28;20183;-70
2022/07/11 12:36:45;;;;;;;11.75;10.73;;;20.10;99.90;;;;;;5072930;28;20164;-70
2022/07/11 12:39:28;;;;;;;10.43;9.63;;;20.40;99.90;;;;;;5072886;28;20625;-70
2022/07/11 12:41:56;;;;;;;10.35;9.43;;;20.30;99.90;;;;;;5071773;28;20183;-74
2022/07/11 12:47:17;;;;;;;10.10;9.43;;;20.30;99.90;;;;;;5072877;28;20218;-72
2022/07/11 12:49:45;;;;;;;10.95;10.07;;;20.60;99.90;;;;;;5071521;28;20188;-72
2022/07/11 12:52:14;;;;;;;11.13;10.20;;;20.70;99.90;;;;;;5073296;28;20172;-72
2022/07/11 12:54:41;;;;;;;9.30;8.73;;;20.70;99.90;;;;;;5072758;28;20164;-72
2022/07/11 12:57:08;;;;;;;10.05;9.07;;;20.70;99.90;;;;;;5073509;28;20221;-71
2022/07/11 12:59:35;;;;;;;9.48;8.77;;;20.90;99.90;;;;;;5076607;28;20528;-73
2022/07/11 13:02:03;;;;;;;9.70;8.85;;;20.90;99.90;;;;;;5076428;28;20171;-73
2022/07/11 13:04:42;;;;;;;10.07;9.38;;;21.10;99.90;;;;;;5076274;28;20699;-73
2022/07/11 13:10:12;;;;;;;11.95;10.88;;;21.20;99.90;;;;;;5075927;28;20261;-72
2022/07/11 13:12:39;;;;;;;10.38;9.68;;;21.30;99.90;;;;;;5076194;28;20255;-73
2022/07/11 13:15:14;;;;;;;11.43;10.35;;;21.20;99.90;;;;;;5077556;28;20217;-80
2022/07/11 13:17:42;;;;;;;10.55;9.85;;;21.10;99.90;;;;;;5076725;28;20528;-79
2022/07/11 13:20:23;;;;;;;10.27;9.50;;;21.10;99.90;;;;;;5077581;28;20164;-79
2022/07/11 13:22:50;;;;;;;10.00;9.07;;;21.00;99.90;;;;;;5077257;28;20168;-79
2022/07/11 13:25:17;;;;;;;9.20;8.50;;;21.00;99.90;;;;;;5077402;28;20175;-79
2022/07/11 13:27:45;;;;;;;8.35;7.85;;;21.00;99.90;;;;;;5077670;28;20191;-79
2022/07/11 13:30:16;;;;;;;8.73;8.10;;;21.10;99.90;;;;;;5076881;28;20223;-79
2022/07/11 13:32:53;;;;;;;8.85;8.35;;;21.20;99.90;;;;;;5077368;28;20172;-80
2022/07/11 13:35:21;;;;;;;9.05;8.45;;;21.10;99.90;;;;;;5076587;28;20167;-82
2022/07/11 13:37:52;;;;;;;9.48;8.80;;;21.20;99.90;;;;;;5076506;28;20176;-80
2022/07/11 13:40:23;;;;;;;8.77;8.23;;;21.10;99.90;;;;;;5076669;28;20255;-80
2022/07/11 13:42:49;;;;;;;9.02;8.43;;;20.80;99.90;;;;;;5079287;28;20172;-80
2022/07/11 13:45:17;;;;;;;8.32;7.80;;;20.60;99.90;;;;;;5076527;28;20168;-79
2022/07/11 13:47:43;;;;;;;8.90;8.30;;;20.40;99.90;;;;;;5077305;28;20178;-81
2022/07/11 13:50:09;;;;;;;9.40;8.82;;;20.20;99.90;;;;;;5076774;28;20283;-78
2022/07/11 13:55:58;;;;;;;9.32;8.63;;;20.40;99.90;;;;;;5078314;28;20658;-84
2022/07/11 13:58:25;;;;;;;9.18;8.57;;;20.50;99.90;;;;;;5077455;28;20164;-84
2022/07/11 14:00:52;;;;;;;8.50;8.00;;;20.50;99.90;;;;;;5077914;28;20262;-84
2022/07/11 14:03:18;;;;;;;8.32;7.82;;;20.40;99.90;;;;;;5078016;28;20182;-84
2022/07/11 14:05:44;;;;;;;9.02;8.43;;;20.50;99.90;;;;;;5076076;28;20192;-87
2022/07/11 14:08:09;;;;;;;8.63;8.13;;;20.40;99.90;;;;;;5078165;28;20178;-87
2022/07/11 14:10:35;;;;;;;8.30;7.85;;;20.30;99.90;;;;;;5076751;28;20225;-85
2022/07/11 14:13:01;;;;;;;7.03;6.53;;;20.20;99.90;;;;;;5077320;28;20243;-84
2022/07/11 14:15:27;;;;;;;6.68;6.10;;;20.20;99.90;;;;;;5075783;28;20172;-80
2022/07/11 14:17:53;;;;;;;6.93;6.25;;;20.30;99.90;;;;;;5072924;28;20179;-77
2022/07/11 14:20:18;;;;;;;8.27;6.28;;;20.40;99.90;;;;;;5074731;28;20182;-78
2022/07/11 14:22:44;;;;;;;6.25;5.90;;;20.40;99.90;;;;;;5074366;28;20172;-78
2022/07/11 14:25:09;;;;;;;5.95;5.65;;;20.50;99.90;;;;;;5074872;28;20172;-78
2022/07/11 14:27:36;;;;;;;6.18;5.68;;;20.60;99.90;;;;;;5074674;28;20174;-79
2022/07/11 14:30:07;;;;;;;6.00;5.70;;;20.70;99.90;;;;;;5074213;28;20295;-79
2022/07/11 14:32:33;;;;;;;6.32;5.88;;;20.70;99.90;;;;;;5074611;28;20195;-75
2022/07/11 14:34:59;;;;;;;6.38;5.75;;;20.90;99.90;;;;;;5074686;28;20202;-75
2022/07/11 14:37:26;;;;;;;6.32;5.93;;;20.90;99.90;;;;;;5074645;28;20195;-74
2022/07/11 14:39:52;;;;;;;6.22;5.82;;;20.80;99.90;;;;;;5074592;28;20686;-72
2022/07/11 14:42:17;;;;;;;5.80;5.50;;;20.70;99.90;;;;;;5074577;28;20180;-73
2022/07/11 14:44:43;;;;;;;8.73;5.28;;;20.40;99.90;;;;;;5074504;28;20532;-74
2022/07/11 14:47:08;;;;;;;5.70;5.38;;;20.50;99.90;;;;;;5074457;28;20172;-73
2022/07/11 14:49:34;;;;;;;5.25;5.05;;;20.60;99.90;;;;;;5074309;28;20542;-72
2022/07/11 14:52:01;;;;;;;5.00;4.80;;;20.70;99.90;;;;;;5074416;28;20164;-72
2022/07/11 14:54:26;;;;;;;5.13;4.82;;;20.90;99.90;;;;;;5074363;28;20166;-72
2022/07/11 14:56:52;;;;;;;5.75;5.45;;;21.10;99.90;;;;;;5073034;28;20179;-73
2022/07/11 14:59:18;;;;;;;4.95;4.72;;;21.30;99.90;;;;;;5072935;28;20174;-73
2022/07/11 15:01:43;;;;;;;5.10;4.80;;;21.20;99.90;;;;;;5074218;28;20160;-72
2022/07/11 15:04:09;;;;;;;4.45;4.25;;;21.20;99.90;;;;;;5074133;28;20505;-72
2022/07/11 15:12:20;;;;;;;4.47;4.28;;;21.60;99.90;;;;;;5073041;28;20240;-78
2022/07/11 15:14:46;;;;;;;4.50;4.10;;;22.10;99.90;;;;;;5074086;28;20160;-75
2022/07/11 15:17:12;;;;;;;4.28;3.88;;;22.60;99.90;;;;;;5073900;28;20246;-75
2022/07/11 15:19:42;;;;;;;4.93;4.60;;;22.70;99.90;;;;;;5073386;28;20183;-81
2022/07/11 15:22:10;;;;;;;4.47;4.18;;;22.60;99.90;;;;;;5073909;28;20174;-81
2022/07/11 15:24:36;;;;;;;4.43;4.03;;;22.40;99.90;;;;;;5073998;28;20168;-74
2022/07/11 15:27:02;;;;;;;3.53;3.33;;;22.40;99.90;;;;;;5073728;28;20170;-76
2022/07/11 15:29:27;;;;;;;4.07;3.78;;;22.70;99.90;;;;;;5072467;28;20269;-76
2022/07/11 15:31:53;;;;;;;3.03;2.92;;;23.20;99.90;;;;;;5073737;28;20163;-75
2022/07/11 15:34:19;;;;;;;2.97;2.75;;;23.60;99.90;;;;;;5073666;28;20176;-75
2022/07/11 15:36:46;;;;;;;2.38;2.28;;;23.80;99.90;;;;;;5073482;28;20168;-75
2022/07/11 15:39:12;;;;;;;2.50;2.30;;;24.10;99.90;;;;;;5073612;28;20621;-75
2022/07/11 15:41:40;;;;;;;2.15;2.05;;;24.10;99.90;;;;;;5074339;28;20171;-82
2022/07/11 15:44:07;;;;;;;2.50;2.40;;;24.30;99.90;;;;;;5073829;28;20526;-84
2022/07/11 15:46:33;;;;;;;2.60;2.50;;;24.30;99.90;;;;;;5074109;28;20293;-83
2022/07/11 15:49:00;;;;;;;2.58;2.47;;;24.20;99.90;;;;;;5073994;28;20485;-84
2022/07/11 15:51:26;;;;;;;2.55;1.77;;;24.40;99.90;;;;;;5073837;28;20188;-83
2022/07/11 15:53:51;;;;;;;1.88;1.88;;;24.80;99.90;;;;;;5073739;28;20164;-75
2022/07/11 15:56:17;;;;;;;1.70;1.70;;;24.50;99.90;;;;;;5073423;28;20245;-75
2022/07/11 15:58:43;;;;;;;2.00;1.90;;;24.20;99.90;;;;;;5073416;28;20183;-75
2022/07/11 16:01:08;;;;;;;2.10;2.00;;;23.60;99.90;;;;;;5073280;28;20620;-74
2022/07/11 16:03:34;;;;;;;2.60;2.40;;;23.10;99.90;;;;;;5073202;28;20179;-74
2022/07/11 16:06:00;;;;;;;3.08;2.97;;;22.50;99.90;;;;;;5072103;28;20175;-74
2022/07/11 16:08:26;;;;;;;2.85;2.75;;;22.40;99.90;;;;;;5073285;28;20178;-74
2022/07/11 16:10:51;;;;;;;3.58;3.38;;;22.30;99.90;;;;;;5073141;28;20219;-73
2022/07/11 16:13:17;;;;;;;3.08;2.97;;;22.40;99.90;;;;;;5073200;28;20168;-73
2022/07/11 16:15:45;;;;;;;3.67;3.50;;;22.60;99.90;;;;;;5073170;28;20246;-72
2022/07/11 16:18:14;;;;;;;3.70;3.50;;;22.70;99.90;;;;;;5073130;28;20167;-72
2022/07/11 16:20:40;;;;;;;4.85;4.60;;;23.00;99.90;;;;;;5073170;28;20167;-73
2022/07/11 16:23:05;;;;;;;3.88;3.75;;;23.30;99.90;;;;;;5073160;28;20163;-73
2022/07/11 16:25:32;;;;;;;5.10;4.85;;;23.20;99.90;;;;;;5073084;28;20163;-73
2022/07/11 16:27:57;;;;;;;5.45;5.15;;;23.00;99.90;;;;;;5073710;28;20167;-85
2022/07/11 16:30:32;;;;;;;5.50;5.15;;;22.90;99.90;;;;;;5073158;28;20188;-72
2022/07/11 16:32:59;;;;;;;5.93;5.63;;;22.80;99.90;;;;;;5076441;28;20636;-73
2022/07/11 16:35:24;;;;;;;5.95;5.65;;;22.70;99.90;;;;;;5077070;28;20257;-75
2022/07/11 16:37:50;;;;;;;6.10;5.70;;;22.70;99.90;;;;;;5076969;28;20222;-73
2022/07/11 16:45:44;;;;;;;8.93;8.32;;;22.70;99.90;;;;;;5076943;28;20182;-81
2022/07/11 16:48:09;;;;;;;8.65;8.15;;;22.60;99.90;;;;;;5075622;28;20180;-82
2022/07/11 16:50:35;;;;;;;8.73;8.23;;;22.60;99.90;;;;;;5076673;28;20200;-82
2022/07/11 16:53:01;;;;;;;9.32;8.73;;;22.50;99.90;;;;;;5076886;28;20213;-79
2022/07/11 16:55:27;;;;;;;7.90;7.45;;;22.40;99.90;;;;;;5076752;28;20160;-83
2022/07/11 16:57:53;;;;;;;6.72;6.40;;;22.60;99.90;;;;;;5075564;28;20263;-82
2022/07/11 17:00:19;;;;;;;6.25;5.93;;;22.80;99.90;;;;;;5077093;28;20180;-82
2022/07/11 17:02:44;;;;;;;6.28;5.88;;;22.70;99.90;;;;;;5075713;28;20653;-82
2022/07/11 17:05:10;;;;;;;6.10;5.72;;;22.80;99.90;;;;;;5076668;28;20245;-82
2022/07/11 17:07:36;;;;;;;5.03;4.82;;;22.90;99.90;;;;;;5076468;28;20649;-81
2022/07/11 17:10:02;;;;;;;4.97;4.78;;;22.90;99.90;;;;;;5075585;28;20298;-82
2022/07/11 17:12:28;;;;;;;4.72;4.53;;;23.10;99.90;;;;;;5076343;28;20243;-81
2022/07/11 17:14:54;;;;;;;4.85;4.65;;;23.30;99.90;;;;;;5075050;28;20655;-80
2022/07/11 17:17:19;;;;;;;4.72;4.53;;;23.50;99.90;;;;;;5075291;28;20168;-81
2022/07/11 17:19:45;;;;;;;5.45;5.15;;;23.60;99.90;;;;;;5076123;28;20164;-81
2022/07/11 17:22:10;;;;;;;4.93;4.63;;;23.70;99.90;;;;;;5076615;28;20202;-85
2022/07/11 17:24:37;;;;;;;4.97;4.70;;;24.10;99.90;;;;;;5075221;28;20179;-86
2022/07/11 17:27:05;;;;;;;4.63;4.43;;;24.70;99.90;;;;;;5075384;28;20210;-84
2022/07/11 17:29:31;;;;;;;3.50;3.40;;;24.70;99.90;;;;;;5076239;28;20172;-84
2022/07/11 17:31:57;;;;;;;4.00;3.80;;;24.80;99.90;;;;;;5076009;28;20163;-84
2022/07/11 17:34:22;;;;;;;3.28;3.10;;;25.10;99.90;;;;;;5076495;28;20167;-84
2022/07/11 17:36:48;;;;;;;3.15;3.05;;;25.40;99.90;;;;;;5074290;28;20195;-85
2022/07/11 17:39:14;;;;;;;3.42;3.22;;;25.80;99.90;;;;;;5075988;28;20217;-84
2022/07/11 17:41:43;;;;;;;3.00;2.90;;;25.80;99.90;;;;;;5076141;28;20172;-85
2022/07/11 17:44:08;;;;;;;2.65;2.55;;;25.20;99.90;;;;;;5075059;28;20172;-85
2022/07/11 17:46:34;;;;;;;3.20;3.10;;;24.70;99.90;;;;;;5076238;28;20570;-85
2022/07/11 17:49:00;;;;;;;3.40;3.20;;;24.00;99.90;;;;;;5076075;28;20171;-86
2022/07/11 17:51:26;;;;;;;3.30;3.20;;;23.50;99.90;;;;;;5074836;28;20225;-86
2022/07/11 17:53:52;;;;;;;3.22;3.13;;;23.10;99.90;;;;;;5077025;28;20168;-86
2022/07/11 17:56:18;;;;;;;3.33;3.13;;;22.70;99.90;;;;;;5075211;28;20228;-85
2022/07/11 17:58:45;;;;;;;2.92;2.83;;;22.40;99.90;;;;;;5074873;28;20172;-85
2022/07/11 18:01:12;;;;;;;3.25;3.15;;;22.10;99.90;;;;;;5076134;28;20176;-85
2022/07/11 18:03:37;;;;;;;3.30;3.10;;;21.80;99.90;;;;;;5076713;28;20163;-85
2022/07/11 18:06:03;;;;;;;2.92;2.53;;;21.70;99.90;;;;;;5076095;28;20764;-84
2022/07/11 18:08:28;;;;;;;2.92;2.83;;;21.40;99.90;;;;;;5075608;28;20179;-84
2022/07/11 18:10:55;;;;;;;2.38;2.28;;;21.30;99.90;;;;;;5075245;28;20703;-84
2022/07/11 18:13:21;;;;;;;2.60;2.50;;;21.20;99.90;;;;;;5075500;28;20174;-84
2022/07/11 18:15:47;;;;;;;3.58;2.70;;;21.10;99.90;;;;;;5075382;28;20255;-84
2022/07/11 18:18:12;;;;;;;2.58;2.47;;;21.10;99.90;;;;;;5075357;28;20245;-84
2022/07/11 18:20:39;;;;;;;2.72;2.53;;;21.00;99.90;;;;;;5075353;28;20256;-84
2022/07/11 18:23:05;;;;;;;2.92;2.83;;;20.90;99.90;;;;;;5075322;28;20667;-84
2022/07/11 18:25:31;;;;;;;2.95;2.80;;;20.90;99.90;;;;;;5075216;28;20199;-84
2022/07/11 18:27:56;;;;;;;2.42;2.33;;;20.90;99.90;;;;;;5075849;28;20195;-84
2022/07/11 18:30:22;;;;;;;2.50;2.40;;;21.00;99.90;;;;;;5073735;28;20733;-84
2022/07/11 18:32:47;;;;;;;2.65;2.55;;;21.00;99.90;;;;;;5075297;28;20167;-84
2022/07/11 18:35:13;;;;;;;2.35;2.28;;;21.10;99.90;;;;;;5074386;28;20225;-84
2022/07/11 18:37:38;;;;;;;2.58;2.47;;;21.20;99.90;;;;;;5075366;28;20203;-83
2022/07/11 18:42:49;;;;;;;1.92;1.92;;;21.20;99.90;;;;;;5075355;28;20174;-86
2022/07/11 18:45:15;;;;;;;2.40;2.20;;;21.20;99.90;;;;;;5076840;28;20171;-83
2022/07/11 18:47:41;;;;;;;2.30;2.20;;;21.40;99.90;;;;;;5076493;28;20501;-84
2022/07/11 18:50:07;;;;;;;2.47;2.38;;;21.40;99.90;;;;;;5077768;28;20192;-84
2022/07/11 18:52:33;;;;;;;2.08;2.08;;;21.50;99.90;;;;;;5077628;28;20160;-84
2022/07/11 18:55:00;;;;;;;3.22;3.03;;;21.50;99.90;;;;;;5076302;28;20174;-85
2022/07/11 18:57:26;;;;;;;2.42;2.30;;;21.30;99.90;;;;;;5075421;28;20174;-85
2022/07/11 18:59:52;;;;;;;3.53;3.33;;;21.30;99.90;;;;;;5074880;28;20172;-84
2022/07/11 19:02:17;;;;;;;3.00;2.90;;;21.30;99.90;;;;;;5075923;28;20208;-84
2022/07/11 19:04:43;;;;;;;2.22;2.13;;;21.00;99.90;;;;;;5075394;28;20195;-84
2022/07/11 19:07:08;;;;;;;1.90;1.90;;;20.80;99.90;;;;;;5073728;28;20171;-84
2022/07/11 19:09:34;;;;;;;2.03;2.03;;;20.40;99.90;;;;;;5073010;28;20210;-81
